createdAt,value
2022-10-13T00:00:39.781Z,67.88
2022-10-13T00:03:08.861Z,67.89
2022-10-13T00:05:36.550Z,68.23
2022-10-13T00:08:04.201Z,67.88
2022-10-13T00:10:31.938Z,68.09
2022-10-13T00:12:59.542Z,68.35
2022-10-13T00:15:27.204Z,68.20
2022-10-13T00:17:54.846Z,68.11
2022-10-13T00:20:23.987Z,68.52
2022-10-13T00:22:51.709Z,68.05
2022-10-13T00:25:19.340Z,68.36
2022-10-13T00:27:46.963Z,68.65
2022-10-13T00:30:15.030Z,68.47
2022-10-13T00:32:42.636Z,68.47
2022-10-13T00:35:10.566Z,68.31
2022-10-13T00:37:39.306Z,71.73
2022-10-13T00:40:08.558Z,68.53
2022-10-13T00:42:36.238Z,68.35
2022-10-13T00:45:07.925Z,68.76
2022-10-13T00:47:39.746Z,68.41
2022-10-13T00:50:11.333Z,68.91
2022-10-13T00:52:42.345Z,68.70
2022-10-13T00:55:12.838Z,68.85
2022-10-13T00:57:43.573Z,69.00
2022-10-13T01:00:12.830Z,68.85
2022-10-13T01:02:40.481Z,68.94
2022-10-13T01:05:08.958Z,68.91
2022-10-13T01:07:37.213Z,69.30
2022-10-13T01:10:07.127Z,69.27
2022-10-13T01:12:45.673Z,69.41
2022-10-13T01:15:18.373Z,69.52
2022-10-13T01:17:57.214Z,69.55
2022-10-13T01:20:56.430Z,69.64
2022-10-13T01:23:57.255Z,69.78
2022-10-13T01:27:05.385Z,70.20
2022-10-13T01:29:55.713Z,69.86
2022-10-13T01:32:30.860Z,69.70
2022-10-13T01:35:06.924Z,69.83
2022-10-13T01:37:44.745Z,70.04
2022-10-13T01:40:19.741Z,69.95
2022-10-13T01:42:54.607Z,70.18
2022-10-13T01:45:29.739Z,69.76
2022-10-13T01:47:59.457Z,70.12
2022-10-13T01:50:27.626Z,69.90
2022-10-13T01:52:56.649Z,70.10
2022-10-13T01:55:24.372Z,70.11
2022-10-13T01:57:51.991Z,70.36
2022-10-13T02:00:22.281Z,70.16
2022-10-13T02:03:05.801Z,70.80
2022-10-13T02:05:49.046Z,70.40
2022-10-13T02:08:25.771Z,70.30
2022-10-13T02:11:00.010Z,70.86
2022-10-13T02:13:30.462Z,70.23
2022-10-13T02:16:01.984Z,70.34
2022-10-13T02:18:34.131Z,70.46
2022-10-13T02:21:03.440Z,70.66
2022-10-13T02:23:31.351Z,70.45
2022-10-13T02:26:00.513Z,70.54
2022-10-13T02:28:29.267Z,70.69
2022-10-13T02:30:57.081Z,70.84
2022-10-13T02:33:24.797Z,70.88
2022-10-13T02:35:53.788Z,70.72
2022-10-13T02:38:21.479Z,71.20
2022-10-13T02:40:49.345Z,70.75
2022-10-13T02:43:17.037Z,70.88
2022-10-13T02:45:44.621Z,70.86
2022-10-13T02:48:12.269Z,70.75
2022-10-13T02:50:39.940Z,70.83
2022-10-13T02:53:08.900Z,70.98
2022-10-13T02:55:36.525Z,71.05
2022-10-13T02:58:04.180Z,71.24
2022-10-13T03:00:31.831Z,71.44
2022-10-13T03:02:59.857Z,71.42
2022-10-13T03:05:27.321Z,75.16
2022-10-13T03:07:54.966Z,71.61
2022-10-13T03:10:24.137Z,71.67
2022-10-13T03:12:51.801Z,71.71
2022-10-13T03:15:19.404Z,71.66
2022-10-13T03:17:47.025Z,71.47
2022-10-13T03:20:14.652Z,71.40
2022-10-13T03:22:46.018Z,71.46
2022-10-13T03:25:16.456Z,71.75
2022-10-13T03:27:45.441Z,72.25
2022-10-13T03:30:13.566Z,71.82
2022-10-13T03:32:41.634Z,71.69
2022-10-13T03:35:09.939Z,72.00
2022-10-13T03:37:37.570Z,72.08
2022-10-13T03:40:06.533Z,72.14
2022-10-13T03:42:36.539Z,71.78
2022-10-13T03:45:06.368Z,72.08
2022-10-13T03:47:36.030Z,72.02
2022-10-13T03:50:04.008Z,72.04
2022-10-13T03:52:31.454Z,74.81
2022-10-13T03:54:59.093Z,71.97
2022-10-13T03:57:26.783Z,71.98
2022-10-13T03:59:56.030Z,72.06
2022-10-13T04:02:25.301Z,72.24
2022-10-13T04:04:52.933Z,72.15
2022-10-13T04:07:20.660Z,72.09
2022-10-13T04:09:48.304Z,72.75
2022-10-13T04:12:19.831Z,72.49
2022-10-13T04:14:48.670Z,72.31
2022-10-13T04:17:16.303Z,72.45
2022-10-13T04:19:45.426Z,72.86
2022-10-13T04:22:13.037Z,72.55
2022-10-13T04:24:40.761Z,72.58
2022-10-13T04:27:08.410Z,72.56
2022-10-13T04:29:36.003Z,72.84
2022-10-13T04:32:03.602Z,72.77
2022-10-13T04:34:31.171Z,72.48
2022-10-13T04:37:00.166Z,73.10
2022-10-13T04:39:27.782Z,73.00
2022-10-13T04:41:55.791Z,72.80
2022-10-13T04:44:23.449Z,72.68
2022-10-13T04:46:51.060Z,72.71
2022-10-13T04:49:18.714Z,72.86
2022-10-13T04:51:46.438Z,73.26
2022-10-13T04:54:15.494Z,73.11
2022-10-13T04:56:45.290Z,73.11
2022-10-13T04:59:13.052Z,73.04
2022-10-13T05:01:40.697Z,73.30
2022-10-13T05:04:09.004Z,73.45
2022-10-13T05:06:53.400Z,73.28
2022-10-13T05:09:28.450Z,73.07
2022-10-13T05:11:56.128Z,73.52
2022-10-13T05:14:24.168Z,73.48
2022-10-13T05:16:51.888Z,73.38
2022-10-13T05:19:20.235Z,73.25
2022-10-13T05:21:47.844Z,73.16
2022-10-13T05:24:16.288Z,73.55
2022-10-13T05:26:45.249Z,73.38
2022-10-13T05:29:12.856Z,73.88
2022-10-13T05:31:41.406Z,73.74
2022-10-13T05:34:09.458Z,74.00
2022-10-13T05:36:37.067Z,74.20
2022-10-13T05:39:07.432Z,74.17
2022-10-13T05:41:35.292Z,73.59
2022-10-13T05:44:09.288Z,74.15
2022-10-13T05:46:37.490Z,74.03
2022-10-13T05:49:05.169Z,73.94
2022-10-13T05:51:36.108Z,74.22
2022-10-13T05:54:08.386Z,74.74
2022-10-13T05:56:40.029Z,74.45
2022-10-13T05:59:13.940Z,74.18
2022-10-13T06:01:43.117Z,74.69
2022-10-13T06:04:15.055Z,74.26
2022-10-13T06:06:42.669Z,74.74
2022-10-13T06:09:10.272Z,74.48
2022-10-13T06:11:37.933Z,74.73
2022-10-13T06:14:05.774Z,74.54
2022-10-13T06:16:35.550Z,74.49
2022-10-13T06:19:03.137Z,74.76
2022-10-13T06:21:30.787Z,74.52
2022-10-13T06:23:58.411Z,74.79
2022-10-13T06:26:26.036Z,74.79
2022-10-13T06:28:59.137Z,74.81
2022-10-13T06:31:27.548Z,75.18
2022-10-13T06:33:56.328Z,79.12
2022-10-13T06:36:23.940Z,75.01
2022-10-13T06:38:51.778Z,74.50
2022-10-13T06:41:19.390Z,74.75
2022-10-13T06:43:47.061Z,74.90
2022-10-13T06:46:16.051Z,74.96
2022-10-13T06:48:43.711Z,74.70
2022-10-13T06:51:13.061Z,75.15
2022-10-13T06:53:40.632Z,75.07
2022-10-13T06:56:09.233Z,75.48
2022-10-13T06:58:37.365Z,75.39
2022-10-13T07:01:05.806Z,75.36
2022-10-13T07:03:33.915Z,75.56
2022-10-13T07:06:02.032Z,79.27
2022-10-13T07:08:31.156Z,75.59
2022-10-13T07:10:59.083Z,75.46
2022-10-13T07:13:26.732Z,80.65
2022-10-13T07:15:54.335Z,75.58
2022-10-13T07:18:21.979Z,75.24
2022-10-13T07:20:49.626Z,75.68
2022-10-13T07:23:17.234Z,75.62
2022-10-13T07:25:46.259Z,75.30
2022-10-13T07:28:14.056Z,75.42
2022-10-13T07:30:41.937Z,75.58
2022-10-13T07:33:09.609Z,75.71
2022-10-13T07:35:39.949Z,75.97
2022-10-13T07:38:07.544Z,75.68
2022-10-13T07:40:35.428Z,75.93
2022-10-13T07:43:04.218Z,80.33
2022-10-13T07:45:32.171Z,76.13
2022-10-13T07:47:59.628Z,80.71
2022-10-13T07:50:27.296Z,75.98
2022-10-13T07:52:54.892Z,75.62
2022-10-13T07:55:22.529Z,75.77
2022-10-13T07:57:50.166Z,75.69
2022-10-13T08:00:20.023Z,75.79
2022-10-13T08:02:51.025Z,75.83
2022-10-13T08:05:18.791Z,75.90
2022-10-13T08:07:46.535Z,76.16
2022-10-13T08:10:15.245Z,75.84
2022-10-13T08:12:42.878Z,76.25
2022-10-13T08:15:11.230Z,75.92
2022-10-13T08:17:40.279Z,75.89
2022-10-13T08:20:08.634Z,76.25
2022-10-13T08:22:36.309Z,76.08
2022-10-13T08:25:04.531Z,75.81
2022-10-13T08:27:47.890Z,75.64
2022-10-13T08:30:18.565Z,75.62
2022-10-13T08:32:47.668Z,75.51
2022-10-13T08:35:15.901Z,75.88
2022-10-13T08:37:43.838Z,75.70
2022-10-13T08:40:14.084Z,80.79
2022-10-13T08:42:44.661Z,75.97
2022-10-13T08:45:40.355Z,75.80
2022-10-13T08:48:14.030Z,75.92
2022-10-13T08:50:45.286Z,75.72
2022-10-13T08:53:15.853Z,76.13
2022-10-13T08:55:46.339Z,76.12
2022-10-13T08:58:19.917Z,76.16
2022-10-13T09:00:47.629Z,76.04
2022-10-13T09:03:25.386Z,76.45
2022-10-13T09:06:07.968Z,76.43
2022-10-13T09:08:41.509Z,76.39
2022-10-13T09:11:11.580Z,76.31
2022-10-13T09:13:39.302Z,76.38
2022-10-13T09:16:08.104Z,76.45
2022-10-13T09:18:38.448Z,76.34
2022-10-13T09:21:22.937Z,76.71
2022-10-13T09:23:53.998Z,76.49
2022-10-13T09:26:24.649Z,76.44
2022-10-13T09:28:53.679Z,76.12
2022-10-13T09:31:25.942Z,76.36
2022-10-13T09:34:03.096Z,76.36
2022-10-13T09:36:31.218Z,76.16
2022-10-13T09:39:13.361Z,76.39
2022-10-13T09:41:42.848Z,76.10
2022-10-13T09:44:14.226Z,76.14
2022-10-13T09:46:49.661Z,75.92
2022-10-13T09:49:34.623Z,76.31
2022-10-13T09:52:04.788Z,75.91
2022-10-13T09:54:44.780Z,76.43
2022-10-13T09:57:19.859Z,75.82
2022-10-13T09:59:51.395Z,75.62
2022-10-13T10:02:27.445Z,75.81
2022-10-13T10:04:59.953Z,75.58
2022-10-13T10:07:32.647Z,75.41
2022-10-13T10:10:04.941Z,75.30
2022-10-13T10:12:37.276Z,75.12
2022-10-13T10:15:27.084Z,75.51
2022-10-13T10:17:59.581Z,75.10
2022-10-13T10:20:43.418Z,75.34
2022-10-13T10:23:17.147Z,74.91
2022-10-13T10:25:49.191Z,74.74
2022-10-13T10:28:38.406Z,75.08
2022-10-13T10:31:18.404Z,74.75
2022-10-13T10:33:56.630Z,74.38
2022-10-13T10:36:34.439Z,74.35
2022-10-13T10:39:09.313Z,73.80
2022-10-13T10:41:45.911Z,73.96
2022-10-13T10:44:18.493Z,73.64
2022-10-13T10:46:48.789Z,73.42
2022-10-13T10:49:20.887Z,73.45
2022-10-13T10:51:50.953Z,73.21
2022-10-13T10:54:34.906Z,73.25
2022-10-13T10:57:09.632Z,73.09
2022-10-13T10:59:51.219Z,73.10
2022-10-13T11:02:38.224Z,72.94
2022-10-13T11:05:06.713Z,72.94
2022-10-13T11:08:01.287Z,72.91
2022-10-13T11:10:30.486Z,72.91
2022-10-13T11:13:22.346Z,73.14
2022-10-13T11:15:50.396Z,73.15
2022-10-13T11:18:56.598Z,73.32
2022-10-13T11:21:24.266Z,72.94
2022-10-13T11:23:53.349Z,72.66
2022-10-13T11:26:31.196Z,72.80
2022-10-13T11:29:00.380Z,72.78
2022-10-13T11:31:47.698Z,73.11
2022-10-13T11:34:30.888Z,73.09
2022-10-13T11:37:03.332Z,72.93
2022-10-13T11:40:00.776Z,73.61
2022-10-13T11:42:59.292Z,73.32
2022-10-13T11:45:53.797Z,73.57
2022-10-13T11:49:02.834Z,73.64
2022-10-13T11:51:37.950Z,73.37
2022-10-13T11:54:16.639Z,73.50
2022-10-13T11:56:50.284Z,73.44
2022-10-13T11:59:26.520Z,73.69
2022-10-13T12:01:55.550Z,73.52
2022-10-13T12:04:24.554Z,73.62
2022-10-13T12:06:58.171Z,73.78
2022-10-13T12:09:26.055Z,73.69
2022-10-13T12:12:01.346Z,73.88
2022-10-13T12:14:34.149Z,73.75
2022-10-13T12:17:03.311Z,73.80
2022-10-13T12:19:32.668Z,73.81
2022-10-13T12:22:01.848Z,73.65
2022-10-13T12:24:31.314Z,73.69
2022-10-13T12:27:10.466Z,73.67
2022-10-13T12:29:41.487Z,73.76
2022-10-13T12:32:20.094Z,73.63
2022-10-13T12:34:47.701Z,73.73
2022-10-13T12:37:26.021Z,73.62
2022-10-13T12:39:54.223Z,73.71
2022-10-13T12:42:29.229Z,73.58
2022-10-13T12:44:57.751Z,73.69
2022-10-13T12:47:39.688Z,74.03
2022-10-13T12:50:38.620Z,74.36
2022-10-13T12:53:16.251Z,74.05
2022-10-13T12:55:50.257Z,74.03
2022-10-13T12:58:24.141Z,74.06
2022-10-13T13:01:27.981Z,74.80
2022-10-13T13:03:58.369Z,74.30
2022-10-13T13:06:34.737Z,74.46
2022-10-13T13:09:27.369Z,75.39
2022-10-13T13:12:28.757Z,75.39
2022-10-13T13:14:58.168Z,74.63
2022-10-13T13:20:21.749Z,74.90
2022-10-13T13:22:50.692Z,74.94
2022-10-13T13:25:18.334Z,75.00
2022-10-13T13:27:46.119Z,75.22
2022-10-13T13:30:17.208Z,75.16
2022-10-13T13:32:44.893Z,75.14
2022-10-13T13:35:12.634Z,75.09
2022-10-13T13:37:44.409Z,74.90
2022-10-13T13:40:17.429Z,75.02
2022-10-13T13:42:45.304Z,74.89
2022-10-13T13:45:13.215Z,76.86
2022-10-13T13:47:42.161Z,74.60
2022-10-13T13:50:17.033Z,74.41
2022-10-13T13:52:44.714Z,74.33
2022-10-13T13:55:12.363Z,74.06
2022-10-13T13:57:40.013Z,74.23
2022-10-13T14:00:08.750Z,74.10
2022-10-13T14:02:36.415Z,74.02
2022-10-13T14:05:06.008Z,74.21
2022-10-13T14:07:33.650Z,74.61
2022-10-13T14:10:02.324Z,74.60
2022-10-13T14:12:30.647Z,74.79
2022-10-13T14:14:58.620Z,74.75
2022-10-13T14:17:26.359Z,74.81
2022-10-13T14:19:54.050Z,74.67
2022-10-13T14:22:23.731Z,74.73
2022-10-13T14:24:51.555Z,74.66
2022-10-13T14:27:19.244Z,74.43
2022-10-13T14:29:47.136Z,74.46
2022-10-13T14:32:14.973Z,74.57
2022-10-13T14:34:42.418Z,76.96
2022-10-13T14:37:10.012Z,74.49
2022-10-13T14:39:39.157Z,74.89
2022-10-13T14:42:06.797Z,74.93
2022-10-13T14:44:34.445Z,74.78
2022-10-13T14:47:02.092Z,74.76
2022-10-13T14:49:29.726Z,74.63
2022-10-13T14:51:57.371Z,74.73
2022-10-13T14:54:25.602Z,74.69
2022-10-13T14:56:54.793Z,74.74
2022-10-13T14:59:22.519Z,74.96
2022-10-13T15:01:50.704Z,74.86
2022-10-13T15:04:18.313Z,74.97
2022-10-13T15:06:45.961Z,74.96
2022-10-13T15:09:13.601Z,75.12
2022-10-13T15:11:41.267Z,75.17
2022-10-13T15:14:10.747Z,75.01
2022-10-13T15:16:38.494Z,75.25
2022-10-13T15:19:06.446Z,75.24
2022-10-13T15:21:34.116Z,75.38
2022-10-13T15:24:02.400Z,75.32
2022-10-13T15:26:30.038Z,75.29
2022-10-13T15:28:57.707Z,75.31
2022-10-13T15:31:26.773Z,75.40
2022-10-13T15:33:55.306Z,75.66
2022-10-13T15:36:24.316Z,75.48
2022-10-13T15:38:52.676Z,75.31
2022-10-13T15:41:22.908Z,75.46
2022-10-13T15:43:50.642Z,75.50
2022-10-13T15:46:23.905Z,75.58
2022-10-13T15:48:55.220Z,75.41
2022-10-13T15:51:26.723Z,75.60
2022-10-13T15:53:55.143Z,75.53
2022-10-13T15:56:22.828Z,75.70
2022-10-13T15:58:50.476Z,75.63
2022-10-13T16:01:18.161Z,75.57
2022-10-13T16:03:45.860Z,75.67
2022-10-13T16:06:15.278Z,75.61
2022-10-13T16:08:44.429Z,75.80
2022-10-13T16:11:14.170Z,75.87
2022-10-13T16:13:42.977Z,75.83
2022-10-13T16:16:10.580Z,76.03
2022-10-13T16:18:40.187Z,76.13
2022-10-13T16:21:17.296Z,76.11
2022-10-13T16:23:47.844Z,76.26
2022-10-13T16:26:17.325Z,76.21
2022-10-13T16:28:45.149Z,76.15
2022-10-13T16:31:15.129Z,76.21
2022-10-13T16:33:43.933Z,76.51
2022-10-13T16:36:13.850Z,76.23
2022-10-13T16:38:41.705Z,76.37
2022-10-13T16:41:12.333Z,78.51
2022-10-13T16:43:39.982Z,76.29
2022-10-13T16:46:08.265Z,76.46
2022-10-13T16:48:36.414Z,76.50
2022-10-13T16:51:09.676Z,76.55
2022-10-13T16:53:38.551Z,76.73
2022-10-13T16:56:07.573Z,76.82
2022-10-13T16:58:36.861Z,76.68
2022-10-13T17:01:08.595Z,76.80
2022-10-13T17:03:36.403Z,76.84
2022-10-13T17:06:04.296Z,77.08
2022-10-13T17:08:31.985Z,80.01
2022-10-13T17:11:00.504Z,77.12
2022-10-13T17:13:28.213Z,76.90
2022-10-13T17:15:57.747Z,77.02
2022-10-13T17:18:27.673Z,77.10
2022-10-13T17:20:57.291Z,77.25
2022-10-13T17:23:26.025Z,77.21
2022-10-13T17:25:54.569Z,77.27
2022-10-13T17:28:23.412Z,77.28
2022-10-13T17:30:59.572Z,77.43
2022-10-13T17:33:27.426Z,77.45
2022-10-13T17:35:59.351Z,80.02
2022-10-13T17:38:27.057Z,77.62
2022-10-13T17:40:59.504Z,77.44
2022-10-13T17:43:27.639Z,77.33
2022-10-13T17:45:58.204Z,79.93
2022-10-13T17:48:32.690Z,77.39
2022-10-13T17:51:02.862Z,77.45
2022-10-13T17:53:30.521Z,77.70
2022-10-13T17:56:00.911Z,77.57
2022-10-13T17:58:28.740Z,77.60
2022-10-13T18:01:12.458Z,77.67
2022-10-13T18:03:45.669Z,77.79
2022-10-13T18:06:13.582Z,77.59
2022-10-13T18:08:41.340Z,77.74
2022-10-13T18:11:10.394Z,77.68
2022-10-13T18:13:38.844Z,77.70
2022-10-13T18:16:08.647Z,77.58
2022-10-13T18:18:36.682Z,77.56
2022-10-13T18:21:07.345Z,77.63
2022-10-13T18:23:36.470Z,77.60
2022-10-13T18:26:05.882Z,77.62
2022-10-13T18:28:36.072Z,77.64
2022-10-13T18:31:05.582Z,77.77
2022-10-13T18:33:33.611Z,77.78
2022-10-13T18:36:01.516Z,77.97
2022-10-13T18:38:30.360Z,79.53
2022-10-13T18:41:00.529Z,77.64
2022-10-13T18:43:28.160Z,77.86
2022-10-13T18:46:00.610Z,78.00
2022-10-13T18:48:28.592Z,77.47
2022-10-13T18:50:56.209Z,78.11
2022-10-13T18:53:24.169Z,77.99
2022-10-13T18:56:02.194Z,78.13
2022-10-13T18:58:31.113Z,78.32
2022-10-13T19:01:02.452Z,78.24
2022-10-13T19:03:30.491Z,78.36
2022-10-13T19:05:58.101Z,78.30
2022-10-13T19:08:26.088Z,78.33
2022-10-13T19:10:55.112Z,78.12
2022-10-13T19:13:23.041Z,78.39
2022-10-13T19:15:50.498Z,80.12
2022-10-13T19:18:18.112Z,78.49
2022-10-13T19:20:46.105Z,78.22
2022-10-13T19:23:16.734Z,78.19
2022-10-13T19:25:45.322Z,78.37
2022-10-13T19:28:14.450Z,78.55
2022-10-13T19:30:42.221Z,78.51
2022-10-13T19:33:11.892Z,78.50
2022-10-13T19:35:44.094Z,78.51
2022-10-13T19:38:12.573Z,78.32
2022-10-13T19:40:42.472Z,78.44
2022-10-13T19:43:10.721Z,78.46
2022-10-13T19:45:45.049Z,78.69
2022-10-13T19:48:12.714Z,78.40
2022-10-13T19:50:41.622Z,78.90
2022-10-13T19:53:09.310Z,78.56
2022-10-13T19:55:39.339Z,78.88
2022-10-13T19:58:07.249Z,78.63
2022-10-13T20:00:35.083Z,80.08
2022-10-13T20:03:05.585Z,78.86
2022-10-13T20:05:33.329Z,78.85
2022-10-13T20:08:00.935Z,78.89
2022-10-13T20:10:28.583Z,78.69
2022-10-13T20:13:00.242Z,78.73
2022-10-13T20:15:27.893Z,79.11
2022-10-13T20:17:55.479Z,78.94
2022-10-13T20:20:24.491Z,79.19
2022-10-13T20:22:52.102Z,79.08
2022-10-13T20:25:20.473Z,79.45
2022-10-13T20:27:48.360Z,79.06
2022-10-13T20:30:15.925Z,80.53
2022-10-13T20:32:43.596Z,79.21
2022-10-13T20:35:11.341Z,78.91
2022-10-13T20:37:40.375Z,79.27
2022-10-13T20:40:08.869Z,79.49
2022-10-13T20:42:36.510Z,79.14
2022-10-13T20:45:04.364Z,79.22
2022-10-13T20:47:31.907Z,80.21
2022-10-13T20:49:59.498Z,79.26
2022-10-13T20:52:27.105Z,79.32
2022-10-13T20:54:56.097Z,79.41
2022-10-13T20:57:24.670Z,79.33
2022-10-13T20:59:52.324Z,79.50
2022-10-13T21:02:19.913Z,79.83
2022-10-13T21:04:47.569Z,79.33
2022-10-13T21:07:15.222Z,79.79
2022-10-13T21:09:42.892Z,79.61
2022-10-13T21:12:11.883Z,79.81
2022-10-13T21:14:39.605Z,79.74
2022-10-13T21:17:07.839Z,80.01
2022-10-13T21:19:36.496Z,79.82
2022-10-13T21:22:04.129Z,80.03
2022-10-13T21:24:32.079Z,79.62
2022-10-13T21:26:59.532Z,81.58
2022-10-13T21:29:28.610Z,79.84
2022-10-13T21:31:56.269Z,80.02
2022-10-13T21:34:23.914Z,79.64
2022-10-13T21:36:51.606Z,79.61
2022-10-13T21:39:19.216Z,79.70
2022-10-13T21:41:46.909Z,79.93
2022-10-13T21:44:15.003Z,80.06
2022-10-13T21:46:44.001Z,79.78
2022-10-13T21:49:11.666Z,79.96
2022-10-13T21:51:40.829Z,80.29
2022-10-13T21:54:10.677Z,79.98
2022-10-13T21:56:39.729Z,80.04
2022-10-13T21:59:08.113Z,80.11
2022-10-13T22:01:35.869Z,80.38
2022-10-13T22:04:06.210Z,80.30
2022-10-13T22:06:34.430Z,80.26
2022-10-13T22:09:05.865Z,80.44
2022-10-13T22:11:35.869Z,80.63
2022-10-13T22:14:03.608Z,80.62
2022-10-13T22:16:33.647Z,80.93
2022-10-13T22:19:01.386Z,81.01
2022-10-13T22:21:33.568Z,80.79
2022-10-13T22:24:04.417Z,81.07
2022-10-13T22:26:34.165Z,80.68
2022-10-13T22:29:03.315Z,80.67
2022-10-13T22:31:32.660Z,80.68
2022-10-13T22:34:01.012Z,81.01
2022-10-13T22:36:30.781Z,81.40
2022-10-13T22:39:00.314Z,80.78
2022-10-13T22:41:28.598Z,81.27
2022-10-13T22:43:58.081Z,81.27
2022-10-13T22:46:28.277Z,81.28
2022-10-13T22:48:56.289Z,81.12
2022-10-13T22:51:27.264Z,80.74
2022-10-13T22:53:57.298Z,81.26
2022-10-13T22:56:26.710Z,81.34
2022-10-13T22:58:55.622Z,81.24
2022-10-13T23:01:23.646Z,80.97
2022-10-13T23:03:52.211Z,83.24
2022-10-13T23:06:22.039Z,81.22
2022-10-13T23:08:50.479Z,81.08
2022-10-13T23:11:19.989Z,81.28
2022-10-13T23:13:47.670Z,81.01
2022-10-13T23:16:17.961Z,81.46
2022-10-13T23:18:45.695Z,81.50
2022-10-13T23:21:16.802Z,81.54
2022-10-13T23:23:45.172Z,81.36
2022-10-13T23:26:16.301Z,81.33
2022-10-13T23:28:45.694Z,81.11
2022-10-13T23:31:16.424Z,81.58
2022-10-13T23:33:44.866Z,81.77
2022-10-13T23:36:16.927Z,81.44
2022-10-13T23:38:44.602Z,81.58
2022-10-13T23:41:15.303Z,81.52
2022-10-13T23:43:43.394Z,80.94
2022-10-13T23:46:12.710Z,83.25
2022-10-13T23:48:41.167Z,81.58
2022-10-13T23:51:10.789Z,81.81
2022-10-13T23:53:39.477Z,81.87
2022-10-13T23:56:08.325Z,81.48
2022-10-13T23:58:37.145Z,81.77
